sensor_id;sensor_type;location;lat;lon;timestamp;P1;durP1;ratioP1;P2;durP2;ratioP2
72895;SDS011;61036;53.224;6.554;2022-09-11T00:00:58;31.10;;;26.43;;
72895;SDS011;61036;53.224;6.554;2022-09-11T00:03:24;31.03;;;26.27;;
72895;SDS011;61036;53.224;6.554;2022-09-11T00:05:49;29.93;;;25.37;;
72895;SDS011;61036;53.224;6.554;2022-09-11T00:08:16;29.00;;;25.23;;
72895;SDS011;61036;53.224;6.554;2022-09-11T00:10:44;29.53;;;25.17;;
72895;SDS011;61036;53.224;6.554;2022-09-11T00:13:17;29.10;;;24.83;;
72895;SDS011;61036;53.224;6.554;2022-09-11T00:15:45;29.90;;;26.13;;
72895;SDS011;61036;53.224;6.554;2022-09-11T00:18:14;28.77;;;24.43;;
72895;SDS011;61036;53.224;6.554;2022-09-11T00:20:51;30.50;;;25.37;;
72895;SDS011;61036;53.224;6.554;2022-09-11T00:23:20;29.77;;;25.63;;
72895;SDS011;61036;53.224;6.554;2022-09-11T00:25:47;28.27;;;24.40;;
72895;SDS011;61036;53.224;6.554;2022-09-11T00:28:14;27.90;;;23.67;;
72895;SDS011;61036;53.224;6.554;2022-09-11T00:30:59;29.07;;;24.37;;
72895;SDS011;61036;53.224;6.554;2022-09-11T00:33:30;28.50;;;24.90;;
72895;SDS011;61036;53.224;6.554;2022-09-11T00:35:57;27.00;;;22.60;;
72895;SDS011;61036;53.224;6.554;2022-09-11T00:38:25;26.60;;;22.97;;
72895;SDS011;61036;53.224;6.554;2022-09-11T00:40:52;25.23;;;21.30;;
72895;SDS011;61036;53.224;6.554;2022-09-11T00:43:19;25.97;;;22.80;;
72895;SDS011;61036;53.224;6.554;2022-09-11T00:45:47;26.03;;;22.03;;
72895;SDS011;61036;53.224;6.554;2022-09-11T00:48:19;26.70;;;22.67;;
72895;SDS011;61036;53.224;6.554;2022-09-11T00:50:51;24.23;;;20.47;;
72895;SDS011;61036;53.224;6.554;2022-09-11T00:53:20;24.43;;;20.90;;
72895;SDS011;61036;53.224;6.554;2022-09-11T00:55:53;25.80;;;22.03;;
72895;SDS011;61036;53.224;6.554;2022-09-11T00:58:24;25.30;;;22.07;;
72895;SDS011;61036;53.224;6.554;2022-09-11T01:00:53;24.57;;;21.90;;
72895;SDS011;61036;53.224;6.554;2022-09-11T01:03:20;24.57;;;21.57;;
72895;SDS011;61036;53.224;6.554;2022-09-11T01:05:47;23.73;;;20.87;;
72895;SDS011;61036;53.224;6.554;2022-09-11T01:08:14;23.20;;;20.70;;
72895;SDS011;61036;53.224;6.554;2022-09-11T01:10:53;25.60;;;21.97;;
72895;SDS011;61036;53.224;6.554;2022-09-11T01:19:04;25.43;;;22.33;;
72895;SDS011;61036;53.224;6.554;2022-09-11T01:30:27;23.80;;;21.23;;
72895;SDS011;61036;53.224;6.554;2022-09-11T01:35:51;23.07;;;19.37;;
72895;SDS011;61036;53.224;6.554;2022-09-11T01:41:08;23.90;;;20.70;;
72895;SDS011;61036;53.224;6.554;2022-09-11T01:43:45;23.53;;;19.90;;
72895;SDS011;61036;53.224;6.554;2022-09-11T01:46:16;22.43;;;19.93;;
72895;SDS011;61036;53.224;6.554;2022-09-11T01:49:02;22.90;;;20.47;;
72895;SDS011;61036;53.224;6.554;2022-09-11T01:51:32;23.17;;;19.60;;
72895;SDS011;61036;53.224;6.554;2022-09-11T01:54:06;22.20;;;19.80;;
72895;SDS011;61036;53.224;6.554;2022-09-11T01:56:40;24.00;;;19.40;;
72895;SDS011;61036;53.224;6.554;2022-09-11T01:59:14;22.60;;;19.73;;
72895;SDS011;61036;53.224;6.554;2022-09-11T02:01:43;22.23;;;19.27;;
72895;SDS011;61036;53.224;6.554;2022-09-11T02:04:25;22.20;;;18.87;;
72895;SDS011;61036;53.224;6.554;2022-09-11T02:06:58;21.17;;;18.87;;
72895;SDS011;61036;53.224;6.554;2022-09-11T02:09:30;22.30;;;19.33;;
72895;SDS011;61036;53.224;6.554;2022-09-11T02:12:00;21.57;;;19.03;;
72895;SDS011;61036;53.224;6.554;2022-09-11T02:14:35;20.67;;;18.30;;
72895;SDS011;61036;53.224;6.554;2022-09-11T02:19:56;22.20;;;18.93;;
72895;SDS011;61036;53.224;6.554;2022-09-11T02:22:24;21.57;;;19.17;;
72895;SDS011;61036;53.224;6.554;2022-09-11T02:24:50;21.13;;;18.83;;
72895;SDS011;61036;53.224;6.554;2022-09-11T02:27:27;22.07;;;19.63;;
72895;SDS011;61036;53.224;6.554;2022-09-11T02:29:56;20.80;;;18.53;;
72895;SDS011;61036;53.224;6.554;2022-09-11T02:32:23;21.43;;;19.13;;
72895;SDS011;61036;53.224;6.554;2022-09-11T02:34:54;21.57;;;19.03;;
72895;SDS011;61036;53.224;6.554;2022-09-11T02:42:38;21.33;;;18.93;;
72895;SDS011;61036;53.224;6.554;2022-09-11T02:50:52;21.43;;;18.40;;
72895;SDS011;61036;53.224;6.554;2022-09-11T02:53:34;19.50;;;17.27;;
72895;SDS011;61036;53.224;6.554;2022-09-11T02:59:08;19.17;;;17.17;;
72895;SDS011;61036;53.224;6.554;2022-09-11T03:01:50;22.33;;;19.07;;
72895;SDS011;61036;53.224;6.554;2022-09-11T03:04:16;18.17;;;16.27;;
72895;SDS011;61036;53.224;6.554;2022-09-11T03:06:44;20.93;;;17.33;;
72895;SDS011;61036;53.224;6.554;2022-09-11T03:09:09;22.33;;;19.00;;
72895;SDS011;61036;53.224;6.554;2022-09-11T03:11:36;22.43;;;19.00;;
72895;SDS011;61036;53.224;6.554;2022-09-11T03:14:05;20.07;;;17.87;;
72895;SDS011;61036;53.224;6.554;2022-09-11T03:16:31;19.37;;;16.93;;
72895;SDS011;61036;53.224;6.554;2022-09-11T03:18:57;19.50;;;16.77;;
72895;SDS011;61036;53.224;6.554;2022-09-11T03:21:22;19.93;;;16.83;;
72895;SDS011;61036;53.224;6.554;2022-09-11T03:23:48;22.00;;;17.97;;
72895;SDS011;61036;53.224;6.554;2022-09-11T03:26:13;18.70;;;16.70;;
72895;SDS011;61036;53.224;6.554;2022-09-11T03:28:41;18.33;;;16.13;;
72895;SDS011;61036;53.224;6.554;2022-09-11T03:31:08;18.77;;;16.30;;
72895;SDS011;61036;53.224;6.554;2022-09-11T03:33:35;19.30;;;17.27;;
72895;SDS011;61036;53.224;6.554;2022-09-11T03:36:00;19.00;;;16.57;;
72895;SDS011;61036;53.224;6.554;2022-09-11T03:38:26;18.73;;;16.67;;
72895;SDS011;61036;53.224;6.554;2022-09-11T03:40:52;19.30;;;16.73;;
72895;SDS011;61036;53.224;6.554;2022-09-11T03:43:19;17.77;;;15.70;;
72895;SDS011;61036;53.224;6.554;2022-09-11T03:45:49;18.10;;;15.73;;
72895;SDS011;61036;53.224;6.554;2022-09-11T03:48:16;18.97;;;16.73;;
72895;SDS011;61036;53.224;6.554;2022-09-11T03:50:43;18.00;;;15.53;;
72895;SDS011;61036;53.224;6.554;2022-09-11T03:53:09;17.40;;;15.60;;
72895;SDS011;61036;53.224;6.554;2022-09-11T03:55:36;17.90;;;15.97;;
72895;SDS011;61036;53.224;6.554;2022-09-11T03:58:03;17.50;;;15.40;;
72895;SDS011;61036;53.224;6.554;2022-09-11T04:00:28;18.90;;;16.07;;
72895;SDS011;61036;53.224;6.554;2022-09-11T04:02:55;18.97;;;16.13;;
72895;SDS011;61036;53.224;6.554;2022-09-11T04:05:34;18.00;;;16.10;;
72895;SDS011;61036;53.224;6.554;2022-09-11T04:08:00;16.43;;;14.67;;
72895;SDS011;61036;53.224;6.554;2022-09-11T04:10:27;18.83;;;15.80;;
72895;SDS011;61036;53.224;6.554;2022-09-11T04:12:54;18.30;;;15.97;;
72895;SDS011;61036;53.224;6.554;2022-09-11T04:15:20;17.37;;;14.93;;
72895;SDS011;61036;53.224;6.554;2022-09-11T04:17:46;16.27;;;14.57;;
72895;SDS011;61036;53.224;6.554;2022-09-11T04:20:12;16.67;;;14.23;;
72895;SDS011;61036;53.224;6.554;2022-09-11T04:22:38;16.43;;;14.67;;
72895;SDS011;61036;53.224;6.554;2022-09-11T04:25:05;15.90;;;14.20;;
72895;SDS011;61036;53.224;6.554;2022-09-11T04:27:32;17.40;;;14.70;;
72895;SDS011;61036;53.224;6.554;2022-09-11T04:29:58;16.37;;;14.33;;
72895;SDS011;61036;53.224;6.554;2022-09-11T04:32:23;17.07;;;15.13;;
72895;SDS011;61036;53.224;6.554;2022-09-11T04:34:49;17.47;;;14.47;;
72895;SDS011;61036;53.224;6.554;2022-09-11T04:37:15;16.37;;;13.60;;
72895;SDS011;61036;53.224;6.554;2022-09-11T04:39:41;17.03;;;14.87;;
72895;SDS011;61036;53.224;6.554;2022-09-11T04:42:07;16.33;;;14.63;;
72895;SDS011;61036;53.224;6.554;2022-09-11T04:44:35;17.17;;;15.37;;
72895;SDS011;61036;53.224;6.554;2022-09-11T04:47:03;17.17;;;14.27;;
72895;SDS011;61036;53.224;6.554;2022-09-11T04:49:29;15.67;;;13.60;;
72895;SDS011;61036;53.224;6.554;2022-09-11T04:51:56;15.23;;;13.63;;
72895;SDS011;61036;53.224;6.554;2022-09-11T04:54:27;17.57;;;14.23;;
72895;SDS011;61036;53.224;6.554;2022-09-11T04:56:55;17.17;;;14.90;;
72895;SDS011;61036;53.224;6.554;2022-09-11T04:59:22;16.37;;;14.27;;
72895;SDS011;61036;53.224;6.554;2022-09-11T05:01:53;15.57;;;13.93;;
72895;SDS011;61036;53.224;6.554;2022-09-11T05:04:19;16.03;;;14.00;;
72895;SDS011;61036;53.224;6.554;2022-09-11T05:06:55;15.87;;;14.17;;
72895;SDS011;61036;53.224;6.554;2022-09-11T05:09:24;15.13;;;13.47;;
72895;SDS011;61036;53.224;6.554;2022-09-11T05:11:52;16.10;;;14.40;;
72895;SDS011;61036;53.224;6.554;2022-09-11T05:14:19;15.67;;;14.00;;
72895;SDS011;61036;53.224;6.554;2022-09-11T05:16:47;15.57;;;13.63;;
72895;SDS011;61036;53.224;6.554;2022-09-11T05:19:14;15.33;;;13.73;;
72895;SDS011;61036;53.224;6.554;2022-09-11T05:21:43;14.60;;;13.10;;
72895;SDS011;61036;53.224;6.554;2022-09-11T05:24:08;15.77;;;13.47;;
72895;SDS011;61036;53.224;6.554;2022-09-11T05:26:35;15.77;;;13.77;;
72895;SDS011;61036;53.224;6.554;2022-09-11T05:29:03;16.70;;;14.47;;
72895;SDS011;61036;53.224;6.554;2022-09-11T05:31:38;14.70;;;13.17;;
72895;SDS011;61036;53.224;6.554;2022-09-11T05:34:05;17.10;;;14.07;;
72895;SDS011;61036;53.224;6.554;2022-09-11T05:36:31;14.87;;;13.33;;
72895;SDS011;61036;53.224;6.554;2022-09-11T05:39:01;15.17;;;13.33;;
72895;SDS011;61036;53.224;6.554;2022-09-11T05:41:28;14.03;;;12.07;;
72895;SDS011;61036;53.224;6.554;2022-09-11T05:43:57;15.60;;;14.00;;
72895;SDS011;61036;53.224;6.554;2022-09-11T05:46:23;14.83;;;13.30;;
72895;SDS011;61036;53.224;6.554;2022-09-11T05:48:53;15.83;;;13.27;;
72895;SDS011;61036;53.224;6.554;2022-09-11T05:51:19;14.67;;;13.17;;
72895;SDS011;61036;53.224;6.554;2022-09-11T05:53:47;14.60;;;13.10;;
72895;SDS011;61036;53.224;6.554;2022-09-11T05:56:17;14.23;;;12.73;;
72895;SDS011;61036;53.224;6.554;2022-09-11T05:58:48;13.43;;;12.03;;
72895;SDS011;61036;53.224;6.554;2022-09-11T06:01:20;13.97;;;12.57;;
72895;SDS011;61036;53.224;6.554;2022-09-11T06:03:55;14.87;;;13.27;;
72895;SDS011;61036;53.224;6.554;2022-09-11T06:06:23;14.63;;;13.10;;
72895;SDS011;61036;53.224;6.554;2022-09-11T06:08:49;13.90;;;12.50;;
72895;SDS011;61036;53.224;6.554;2022-09-11T06:11:17;13.70;;;12.30;;
72895;SDS011;61036;53.224;6.554;2022-09-11T06:13:44;14.30;;;12.80;;
72895;SDS011;61036;53.224;6.554;2022-09-11T06:16:18;14.80;;;12.43;;
72895;SDS011;61036;53.224;6.554;2022-09-11T06:18:46;14.43;;;12.93;;
72895;SDS011;61036;53.224;6.554;2022-09-11T06:21:17;13.27;;;11.87;;
72895;SDS011;61036;53.224;6.554;2022-09-11T06:23:51;13.70;;;12.30;;
72895;SDS011;61036;53.224;6.554;2022-09-11T06:26:19;14.80;;;12.00;;
72895;SDS011;61036;53.224;6.554;2022-09-11T06:28:46;14.80;;;13.20;;
72895;SDS011;61036;53.224;6.554;2022-09-11T06:31:14;13.57;;;12.17;;
72895;SDS011;61036;53.224;6.554;2022-09-11T06:33:42;13.63;;;12.23;;
72895;SDS011;61036;53.224;6.554;2022-09-11T06:36:12;13.60;;;12.20;;
72895;SDS011;61036;53.224;6.554;2022-09-11T06:38:44;13.53;;;12.13;;
72895;SDS011;61036;53.224;6.554;2022-09-11T06:41:13;12.57;;;11.27;;
72895;SDS011;61036;53.224;6.554;2022-09-11T06:43:40;12.93;;;11.47;;
72895;SDS011;61036;53.224;6.554;2022-09-11T06:48:41;14.27;;;12.60;;
72895;SDS011;61036;53.224;6.554;2022-09-11T06:51:15;13.37;;;11.97;;
72895;SDS011;61036;53.224;6.554;2022-09-11T06:53:42;13.70;;;12.30;;
72895;SDS011;61036;53.224;6.554;2022-09-11T06:56:11;14.00;;;11.23;;
72895;SDS011;61036;53.224;6.554;2022-09-11T06:58:40;15.17;;;12.57;;
72895;SDS011;61036;53.224;6.554;2022-09-11T07:01:07;14.27;;;12.77;;
72895;SDS011;61036;53.224;6.554;2022-09-11T07:03:37;12.67;;;11.37;;
72895;SDS011;61036;53.224;6.554;2022-09-11T07:06:14;13.70;;;12.30;;
72895;SDS011;61036;53.224;6.554;2022-09-11T07:08:47;13.77;;;12.30;;
72895;SDS011;61036;53.224;6.554;2022-09-11T07:11:25;14.70;;;11.70;;
72895;SDS011;61036;53.224;6.554;2022-09-11T07:13:52;13.67;;;12.23;;
72895;SDS011;61036;53.224;6.554;2022-09-11T07:16:18;15.10;;;11.97;;
72895;SDS011;61036;53.224;6.554;2022-09-11T07:18:49;13.97;;;12.00;;
72895;SDS011;61036;53.224;6.554;2022-09-11T07:21:21;12.87;;;10.90;;
72895;SDS011;61036;53.224;6.554;2022-09-11T07:23:57;12.57;;;10.90;;
72895;SDS011;61036;53.224;6.554;2022-09-11T07:26:25;12.77;;;11.33;;
72895;SDS011;61036;53.224;6.554;2022-09-11T07:28:57;12.83;;;10.93;;
72895;SDS011;61036;53.224;6.554;2022-09-11T07:31:25;13.80;;;11.27;;
72895;SDS011;61036;53.224;6.554;2022-09-11T07:33:57;13.10;;;10.87;;
72895;SDS011;61036;53.224;6.554;2022-09-11T07:36:25;12.47;;;11.00;;
72895;SDS011;61036;53.224;6.554;2022-09-11T07:38:53;13.23;;;11.00;;
72895;SDS011;61036;53.224;6.554;2022-09-11T07:41:21;11.63;;;10.43;;
72895;SDS011;61036;53.224;6.554;2022-09-11T07:43:51;11.53;;;10.33;;
72895;SDS011;61036;53.224;6.554;2022-09-11T07:46:18;11.37;;;9.57;;
72895;SDS011;61036;53.224;6.554;2022-09-11T07:48:44;10.13;;;8.97;;
72895;SDS011;61036;53.224;6.554;2022-09-11T07:51:11;10.97;;;9.37;;
72895;SDS011;61036;53.224;6.554;2022-09-11T07:53:42;10.70;;;9.60;;
72895;SDS011;61036;53.224;6.554;2022-09-11T07:56:12;11.07;;;9.63;;
72895;SDS011;61036;53.224;6.554;2022-09-11T07:58:40;8.00;;;6.57;;
72895;SDS011;61036;53.224;6.554;2022-09-11T08:01:08;9.57;;;5.70;;
72895;SDS011;61036;53.224;6.554;2022-09-11T08:03:36;8.60;;;6.77;;
72895;SDS011;61036;53.224;6.554;2022-09-11T08:06:04;10.47;;;6.50;;
72895;SDS011;61036;53.224;6.554;2022-09-11T08:08:34;7.87;;;6.00;;
72895;SDS011;61036;53.224;6.554;2022-09-11T08:11:05;8.80;;;6.40;;
72895;SDS011;61036;53.224;6.554;2022-09-11T08:14:00;7.73;;;5.40;;
72895;SDS011;61036;53.224;6.554;2022-09-11T08:16:26;6.60;;;4.63;;
72895;SDS011;61036;53.224;6.554;2022-09-11T08:18:55;7.27;;;5.03;;
72895;SDS011;61036;53.224;6.554;2022-09-11T08:21:21;6.50;;;4.70;;
72895;SDS011;61036;53.224;6.554;2022-09-11T08:23:47;6.03;;;4.37;;
72895;SDS011;61036;53.224;6.554;2022-09-11T08:26:19;5.77;;;3.33;;
72895;SDS011;61036;53.224;6.554;2022-09-11T08:28:49;7.57;;;3.30;;
72895;SDS011;61036;53.224;6.554;2022-09-11T08:31:17;5.50;;;2.90;;
72895;SDS011;61036;53.224;6.554;2022-09-11T08:33:44;5.77;;;2.60;;
72895;SDS011;61036;53.224;6.554;2022-09-11T08:36:11;6.33;;;3.00;;
72895;SDS011;61036;53.224;6.554;2022-09-11T08:38:41;6.20;;;3.07;;
72895;SDS011;61036;53.224;6.554;2022-09-11T08:46:39;4.50;;;2.13;;
72895;SDS011;61036;53.224;6.554;2022-09-11T08:49:16;3.70;;;1.87;;
72895;SDS011;61036;53.224;6.554;2022-09-11T08:51:44;3.93;;;2.00;;
72895;SDS011;61036;53.224;6.554;2022-09-11T08:54:24;4.83;;;1.80;;
72895;SDS011;61036;53.224;6.554;2022-09-11T08:57:00;7.67;;;1.83;;
72895;SDS011;61036;53.224;6.554;2022-09-11T08:59:35;3.60;;;1.77;;
72895;SDS011;61036;53.224;6.554;2022-09-11T09:02:20;2.73;;;1.40;;
72895;SDS011;61036;53.224;6.554;2022-09-11T09:05:25;3.17;;;1.53;;
72895;SDS011;61036;53.224;6.554;2022-09-11T09:19:37;2.67;;;1.43;;
72895;SDS011;61036;53.224;6.554;2022-09-11T09:24:57;3.33;;;1.50;;
72895;SDS011;61036;53.224;6.554;2022-09-11T09:27:36;3.50;;;1.70;;
72895;SDS011;61036;53.224;6.554;2022-09-11T09:30:06;4.63;;;1.60;;
72895;SDS011;61036;53.224;6.554;2022-09-11T09:32:40;4.97;;;1.60;;
72895;SDS011;61036;53.224;6.554;2022-09-11T09:35:17;2.53;;;1.30;;
72895;SDS011;61036;53.224;6.554;2022-09-11T09:37:47;4.40;;;1.40;;
72895;SDS011;61036;53.224;6.554;2022-09-11T09:40:14;3.07;;;1.43;;
72895;SDS011;61036;53.224;6.554;2022-09-11T09:45:41;2.47;;;1.40;;
72895;SDS011;61036;53.224;6.554;2022-09-11T09:48:25;2.20;;;1.20;;
72895;SDS011;61036;53.224;6.554;2022-09-11T09:50:53;2.87;;;1.30;;
72895;SDS011;61036;53.224;6.554;2022-09-11T09:56:27;4.00;;;2.00;;
72895;SDS011;61036;53.224;6.554;2022-09-11T09:58:59;5.37;;;2.77;;
72895;SDS011;61036;53.224;6.554;2022-09-11T10:04:16;4.80;;;3.43;;
72895;SDS011;61036;53.224;6.554;2022-09-11T10:06:44;7.23;;;3.30;;
72895;SDS011;61036;53.224;6.554;2022-09-11T10:09:24;9.93;;;3.30;;
72895;SDS011;61036;53.224;6.554;2022-09-11T10:20:49;5.60;;;2.87;;
72895;SDS011;61036;53.224;6.554;2022-09-11T10:23:25;5.53;;;3.13;;
72895;SDS011;61036;53.224;6.554;2022-09-11T10:25:53;5.00;;;3.23;;
72895;SDS011;61036;53.224;6.554;2022-09-11T10:28:22;5.73;;;3.43;;
72895;SDS011;61036;53.224;6.554;2022-09-11T10:30:59;5.77;;;2.70;;
72895;SDS011;61036;53.224;6.554;2022-09-11T10:35:54;7.37;;;3.53;;
72895;SDS011;61036;53.224;6.554;2022-09-11T10:38:29;6.70;;;3.40;;
72895;SDS011;61036;53.224;6.554;2022-09-11T10:48:42;5.73;;;3.60;;
72895;SDS011;61036;53.224;6.554;2022-09-11T10:51:08;5.10;;;3.40;;
72895;SDS011;61036;53.224;6.554;2022-09-11T10:53:38;6.70;;;3.63;;
72895;SDS011;61036;53.224;6.554;2022-09-11T10:56:16;5.20;;;2.80;;
72895;SDS011;61036;53.224;6.554;2022-09-11T10:58:42;5.50;;;3.30;;
72895;SDS011;61036;53.224;6.554;2022-09-11T11:01:11;4.70;;;2.77;;
72895;SDS011;61036;53.224;6.554;2022-09-11T11:03:37;7.07;;;2.70;;
72895;SDS011;61036;53.224;6.554;2022-09-11T11:11:32;5.23;;;2.17;;
72895;SDS011;61036;53.224;6.554;2022-09-11T11:25:17;3.37;;;1.70;;
72895;SDS011;61036;53.224;6.554;2022-09-11T11:39:16;3.07;;;1.50;;
72895;SDS011;61036;53.224;6.554;2022-09-11T11:42:52;3.67;;;1.70;;
72895;SDS011;61036;53.224;6.554;2022-09-11T11:45:15;5.27;;;1.80;;
72895;SDS011;61036;53.224;6.554;2022-09-11T11:47:46;3.57;;;1.40;;
72895;SDS011;61036;53.224;6.554;2022-09-11T11:53:06;4.30;;;1.67;;
72895;SDS011;61036;53.224;6.554;2022-09-11T11:58:48;4.20;;;1.80;;
72895;SDS011;61036;53.224;6.554;2022-09-11T12:01:22;4.50;;;2.27;;
72895;SDS011;61036;53.224;6.554;2022-09-11T12:06:27;3.67;;;1.90;;
72895;SDS011;61036;53.224;6.554;2022-09-11T12:08:53;4.03;;;1.77;;
72895;SDS011;61036;53.224;6.554;2022-09-11T12:11:24;3.73;;;1.77;;
72895;SDS011;61036;53.224;6.554;2022-09-11T12:13:54;4.90;;;1.97;;
72895;SDS011;61036;53.224;6.554;2022-09-11T12:19:02;4.27;;;2.00;;
72895;SDS011;61036;53.224;6.554;2022-09-11T12:24:19;4.90;;;2.10;;
72895;SDS011;61036;53.224;6.554;2022-09-11T12:27:30;3.43;;;1.67;;
72895;SDS011;61036;53.224;6.554;2022-09-11T12:32:46;4.63;;;1.60;;
72895;SDS011;61036;53.224;6.554;2022-09-11T12:35:16;4.77;;;2.00;;
72895;SDS011;61036;53.224;6.554;2022-09-11T12:38:34;4.23;;;1.53;;
72895;SDS011;61036;53.224;6.554;2022-09-11T12:48:45;6.03;;;3.00;;
72895;SDS011;61036;53.224;6.554;2022-09-11T12:54:01;6.80;;;3.67;;
72895;SDS011;61036;53.224;6.554;2022-09-11T12:56:43;4.43;;;2.53;;
72895;SDS011;61036;53.224;6.554;2022-09-11T12:59:17;5.77;;;3.20;;
72895;SDS011;61036;53.224;6.554;2022-09-11T13:02:42;5.37;;;2.90;;
72895;SDS011;61036;53.224;6.554;2022-09-11T13:05:14;7.63;;;3.30;;
72895;SDS011;61036;53.224;6.554;2022-09-11T13:07:45;4.57;;;2.90;;
72895;SDS011;61036;53.224;6.554;2022-09-11T13:10:23;5.57;;;2.90;;
72895;SDS011;61036;53.224;6.554;2022-09-11T13:12:51;4.67;;;2.57;;
72895;SDS011;61036;53.224;6.554;2022-09-11T13:15:33;5.30;;;3.30;;
72895;SDS011;61036;53.224;6.554;2022-09-11T13:18:19;5.07;;;2.50;;
72895;SDS011;61036;53.224;6.554;2022-09-11T13:20:55;7.13;;;4.20;;
72895;SDS011;61036;53.224;6.554;2022-09-11T13:23:25;8.93;;;4.27;;
72895;SDS011;61036;53.224;6.554;2022-09-11T13:25:53;7.33;;;4.07;;
72895;SDS011;61036;53.224;6.554;2022-09-11T13:28:20;5.53;;;3.90;;
72895;SDS011;61036;53.224;6.554;2022-09-11T13:30:52;6.67;;;3.83;;
72895;SDS011;61036;53.224;6.554;2022-09-11T13:33:21;6.27;;;3.50;;
72895;SDS011;61036;53.224;6.554;2022-09-11T13:35:51;6.30;;;3.93;;
72895;SDS011;61036;53.224;6.554;2022-09-11T13:38:26;8.30;;;3.70;;
72895;SDS011;61036;53.224;6.554;2022-09-11T13:41:02;5.73;;;4.07;;
72895;SDS011;61036;53.224;6.554;2022-09-11T13:43:40;6.10;;;3.07;;
72895;SDS011;61036;53.224;6.554;2022-09-11T13:48:40;6.10;;;3.13;;
72895;SDS011;61036;53.224;6.554;2022-09-11T13:51:17;7.70;;;3.50;;
72895;SDS011;61036;53.224;6.554;2022-09-11T13:53:53;6.20;;;3.17;;
72895;SDS011;61036;53.224;6.554;2022-09-11T13:56:44;6.03;;;2.73;;
72895;SDS011;61036;53.224;6.554;2022-09-11T14:02:04;5.30;;;2.77;;
72895;SDS011;61036;53.224;6.554;2022-09-11T14:04:45;6.67;;;2.57;;
72895;SDS011;61036;53.224;6.554;2022-09-11T14:07:14;4.87;;;2.57;;
72895;SDS011;61036;53.224;6.554;2022-09-11T14:09:45;4.30;;;2.60;;
72895;SDS011;61036;53.224;6.554;2022-09-11T14:12:11;4.73;;;2.73;;
72895;SDS011;61036;53.224;6.554;2022-09-11T14:14:39;6.30;;;3.07;;
72895;SDS011;61036;53.224;6.554;2022-09-11T14:17:11;5.37;;;3.30;;
72895;SDS011;61036;53.224;6.554;2022-09-11T14:19:40;5.70;;;3.00;;
72895;SDS011;61036;53.224;6.554;2022-09-11T14:22:15;4.70;;;2.40;;
72895;SDS011;61036;53.224;6.554;2022-09-11T14:24:49;5.20;;;2.30;;
72895;SDS011;61036;53.224;6.554;2022-09-11T14:29:59;5.10;;;2.30;;
72895;SDS011;61036;53.224;6.554;2022-09-11T14:34:56;3.20;;;1.67;;
72895;SDS011;61036;53.224;6.554;2022-09-11T14:37:23;5.90;;;2.20;;
72895;SDS011;61036;53.224;6.554;2022-09-11T14:39:52;4.63;;;2.20;;
72895;SDS011;61036;53.224;6.554;2022-09-11T14:42:21;4.80;;;2.00;;
72895;SDS011;61036;53.224;6.554;2022-09-11T14:44:48;6.73;;;2.37;;
72895;SDS011;61036;53.224;6.554;2022-09-11T14:47:15;6.67;;;2.53;;
72895;SDS011;61036;53.224;6.554;2022-09-11T14:49:43;6.03;;;3.00;;
72895;SDS011;61036;53.224;6.554;2022-09-11T14:52:13;5.13;;;2.30;;
72895;SDS011;61036;53.224;6.554;2022-09-11T14:54:40;5.27;;;2.43;;
72895;SDS011;61036;53.224;6.554;2022-09-11T14:57:13;4.83;;;2.10;;
72895;SDS011;61036;53.224;6.554;2022-09-11T14:59:41;4.57;;;2.50;;
72895;SDS011;61036;53.224;6.554;2022-09-11T15:02:13;3.33;;;2.00;;
72895;SDS011;61036;53.224;6.554;2022-09-11T15:04:40;6.77;;;3.70;;
72895;SDS011;61036;53.224;6.554;2022-09-11T15:07:08;4.73;;;2.30;;
72895;SDS011;61036;53.224;6.554;2022-09-11T15:09:35;5.17;;;2.50;;
72895;SDS011;61036;53.224;6.554;2022-09-11T15:12:04;3.93;;;2.00;;
72895;SDS011;61036;53.224;6.554;2022-09-11T15:14:31;3.70;;;1.67;;
72895;SDS011;61036;53.224;6.554;2022-09-11T15:17:00;5.40;;;2.40;;
72895;SDS011;61036;53.224;6.554;2022-09-11T15:19:27;4.47;;;2.27;;
72895;SDS011;61036;53.224;6.554;2022-09-11T15:21:56;7.13;;;4.60;;
72895;SDS011;61036;53.224;6.554;2022-09-11T15:24:24;6.00;;;2.83;;
72895;SDS011;61036;53.224;6.554;2022-09-11T15:26:52;4.70;;;2.47;;
72895;SDS011;61036;53.224;6.554;2022-09-11T15:29:19;6.50;;;2.97;;
72895;SDS011;61036;53.224;6.554;2022-09-11T15:31:46;3.50;;;2.47;;
72895;SDS011;61036;53.224;6.554;2022-09-11T15:34:13;4.47;;;2.87;;
72895;SDS011;61036;53.224;6.554;2022-09-11T15:36:40;5.23;;;2.80;;
72895;SDS011;61036;53.224;6.554;2022-09-11T15:39:06;5.80;;;2.80;;
72895;SDS011;61036;53.224;6.554;2022-09-11T15:41:36;6.97;;;2.73;;
72895;SDS011;61036;53.224;6.554;2022-09-11T15:44:04;4.20;;;2.37;;
72895;SDS011;61036;53.224;6.554;2022-09-11T15:46:34;5.23;;;2.40;;
72895;SDS011;61036;53.224;6.554;2022-09-11T15:49:00;4.93;;;2.27;;
72895;SDS011;61036;53.224;6.554;2022-09-11T15:51:26;4.47;;;2.47;;
72895;SDS011;61036;53.224;6.554;2022-09-11T15:53:51;3.73;;;1.80;;
72895;SDS011;61036;53.224;6.554;2022-09-11T15:56:18;4.60;;;2.50;;
72895;SDS011;61036;53.224;6.554;2022-09-11T15:58:44;3.73;;;2.23;;
72895;SDS011;61036;53.224;6.554;2022-09-11T16:03:59;4.90;;;2.07;;
72895;SDS011;61036;53.224;6.554;2022-09-11T16:06:27;3.17;;;1.90;;
72895;SDS011;61036;53.224;6.554;2022-09-11T16:08:54;3.87;;;2.03;;
72895;SDS011;61036;53.224;6.554;2022-09-11T16:11:25;4.13;;;2.10;;
72895;SDS011;61036;53.224;6.554;2022-09-11T16:13:51;5.00;;;2.50;;
72895;SDS011;61036;53.224;6.554;2022-09-11T16:16:18;4.43;;;1.73;;
72895;SDS011;61036;53.224;6.554;2022-09-11T16:18:44;4.00;;;2.27;;
72895;SDS011;61036;53.224;6.554;2022-09-11T16:21:10;6.87;;;2.90;;
72895;SDS011;61036;53.224;6.554;2022-09-11T16:23:38;6.13;;;2.53;;
72895;SDS011;61036;53.224;6.554;2022-09-11T16:26:06;4.43;;;2.33;;
72895;SDS011;61036;53.224;6.554;2022-09-11T16:28:35;5.13;;;2.60;;
72895;SDS011;61036;53.224;6.554;2022-09-11T16:31:02;7.17;;;2.80;;
72895;SDS011;61036;53.224;6.554;2022-09-11T16:33:29;5.20;;;2.60;;
72895;SDS011;61036;53.224;6.554;2022-09-11T16:36:00;4.37;;;2.20;;
72895;SDS011;61036;53.224;6.554;2022-09-11T16:38:31;3.83;;;2.10;;
72895;SDS011;61036;53.224;6.554;2022-09-11T16:43:25;5.47;;;2.70;;
72895;SDS011;61036;53.224;6.554;2022-09-11T16:45:51;3.83;;;2.20;;
72895;SDS011;61036;53.224;6.554;2022-09-11T16:48:17;4.43;;;2.27;;
72895;SDS011;61036;53.224;6.554;2022-09-11T16:50:52;4.40;;;2.30;;
72895;SDS011;61036;53.224;6.554;2022-09-11T16:53:23;3.70;;;2.27;;
72895;SDS011;61036;53.224;6.554;2022-09-11T16:55:51;5.07;;;2.57;;
72895;SDS011;61036;53.224;6.554;2022-09-11T16:58:17;4.77;;;2.33;;
72895;SDS011;61036;53.224;6.554;2022-09-11T17:00:46;3.50;;;2.00;;
72895;SDS011;61036;53.224;6.554;2022-09-11T17:03:14;5.33;;;2.20;;
72895;SDS011;61036;53.224;6.554;2022-09-11T17:05:46;3.43;;;2.20;;
72895;SDS011;61036;53.224;6.554;2022-09-11T17:08:13;4.23;;;2.40;;
72895;SDS011;61036;53.224;6.554;2022-09-11T17:10:42;4.97;;;2.90;;
72895;SDS011;61036;53.224;6.554;2022-09-11T17:13:11;3.93;;;2.23;;
72895;SDS011;61036;53.224;6.554;2022-09-11T17:15:37;4.53;;;2.40;;
72895;SDS011;61036;53.224;6.554;2022-09-11T17:18:04;4.60;;;2.70;;
72895;SDS011;61036;53.224;6.554;2022-09-11T17:20:30;3.80;;;1.97;;
72895;SDS011;61036;53.224;6.554;2022-09-11T17:22:56;3.70;;;2.10;;
72895;SDS011;61036;53.224;6.554;2022-09-11T17:25:22;4.27;;;2.17;;
72895;SDS011;61036;53.224;6.554;2022-09-11T17:27:53;3.90;;;2.20;;
72895;SDS011;61036;53.224;6.554;2022-09-11T17:30:19;3.53;;;2.10;;
72895;SDS011;61036;53.224;6.554;2022-09-11T17:32:45;4.17;;;2.47;;